lambopower.com alexa rank chart, lambopower.com alexa rank daily changes

lambopower.com alexa rank chart, lambopower.com alexa rank daily changes

lambopower.com
Actual rank:
351 333

RANK HISTORY

Date Rank Diff
2018/02/24 351 333 -22 906
2018/02/22 374 239 -253 059
2018/02/21 627 298 +181 918
2018/02/18 445 380 -127 715
2018/02/16 573 095 +221 830
2018/02/14 351 265 -246 371
2018/02/09 597 636 -86 149
2018/02/07 683 785 +409 196
2018/02/04 274 589 -399 724
2018/02/02 674 313 +242 644
2018/02/01 431 669 -284 588
2018/01/31 716 257 -1 633
2018/01/30 717 890 +20 969
2018/01/29 696 921 +38 904
2018/01/28 658 017 +13 922
2018/01/27 644 095 +3 286
2018/01/26 640 809 +4 499
2018/01/25 636 310 -16 701
2018/01/24 653 011 +1 087
2018/01/23 651 924 -13 418
2018/01/22 665 342 +22 283
2018/01/21 643 059 -14
2018/01/20 643 073 -14 522
2018/01/19 657 595 -41 090
2018/01/18 698 685 -25 070
2018/01/17 723 755 +1 756
2018/01/16 721 999 +42 755
2018/01/15 679 244 -1 566
2018/01/14 680 810 -21 094
2018/01/13 701 904 -2 765
2018/01/12 704 669 -39 526
2018/01/11 744 195 -17 923
2018/01/10 762 118 +1 341
2018/01/09 760 777 -443
2018/01/08 761 220 +4 867
2018/01/07 756 353 +22 405
2018/01/06 733 948 +11 049
2018/01/05 722 899 +25 956
2018/01/04 696 943 +6 748
2018/01/03 690 195 +14 231
2018/01/02 675 964 +19 981
2018/01/01 655 983 -11 512
2017/12/31 667 495 -24 333
2017/12/30 691 828 -24 939
2017/12/29 716 767 -32 550
2017/12/28 749 317 -30 105
2017/12/27 779 422 -2 162
2017/12/26 781 584

WIDGET FOR YOUR SITE

DOMAINS WITH THE NEAREST RANK

Domain Rank
tourout.ru 351 328
richestnetworths.com 351 329
litrasoch.ru 351 330
coinspace.biz 351 331
mvinfo.hr 351 332
lambopower.com 351 333
knightfrank.ug 351 334
sign-ific-ance.co.uk 351 335
smc.com 351 336
wego.com.my 351 337
pornbubs.com 351 338

DOMAINS WITH THE NEAREST RANK BY TLD .com

Domain Rank
pornuhino.com 351 323
merchreadydesigns.com 351 324
zeriamerikes.com 351 325
snow98.com 351 327
richestnetworths.com 351 329
lambopower.com 351 333
smc.com 351 336
pornbubs.com 351 338
adamsmithinternational.com 351 339
foreui.com 351 340
islamancient.com 351 341